sensor_id;sensor_type;location;lat;lon;timestamp;pressure;altitude;pressure_sealevel;temperature;humidity
2875;BME280;1445;52.600;13.328;2023-03-14T00:03:34;98594.59;;;12.57;100.00
2875;BME280;1445;52.600;13.328;2023-03-14T00:06:04;98594.16;;;12.55;100.00
2875;BME280;1445;52.600;13.328;2023-03-14T00:08:30;98593.38;;;12.54;100.00
2875;BME280;1445;52.600;13.328;2023-03-14T00:10:55;98578.97;;;12.45;100.00
2875;BME280;1445;52.600;13.328;2023-03-14T00:13:22;98575.75;;;12.39;100.00
2875;BME280;1445;52.600;13.328;2023-03-14T00:15:48;98602.41;;;12.32;100.00
2875;BME280;1445;52.600;13.328;2023-03-14T00:18:13;98579.28;;;12.40;100.00
2875;BME280;1445;52.600;13.328;2023-03-14T00:20:38;98572.91;;;12.36;100.00
2875;BME280;1445;52.600;13.328;2023-03-14T00:23:04;98564.91;;;12.31;100.00
2875;BME280;1445;52.600;13.328;2023-03-14T00:25:29;98547.72;;;12.18;100.00
2875;BME280;1445;52.600;13.328;2023-03-14T00:27:55;98541.16;;;12.26;100.00
2875;BME280;1445;52.600;13.328;2023-03-14T00:30:20;98538.34;;;12.23;100.00
2875;BME280;1445;52.600;13.328;2023-03-14T00:32:47;98539.00;;;12.16;100.00
2875;BME280;1445;52.600;13.328;2023-03-14T00:35:12;98541.38;;;12.17;100.00
2875;BME280;1445;52.600;13.328;2023-03-14T00:37:38;98514.13;;;12.16;100.00
2875;BME280;1445;52.600;13.328;2023-03-14T00:40:04;98509.59;;;12.04;100.00
2875;BME280;1445;52.600;13.328;2023-03-14T00:42:32;98516.25;;;12.03;100.00
2875;BME280;1445;52.600;13.328;2023-03-14T00:44:57;98519.00;;;12.03;100.00
2875;BME280;1445;52.600;13.328;2023-03-14T00:47:22;98524.53;;;12.03;100.00
2875;BME280;1445;52.600;13.328;2023-03-14T00:49:48;98524.34;;;11.92;100.00
2875;BME280;1445;52.600;13.328;2023-03-14T00:52:14;98515.63;;;11.90;100.00
2875;BME280;1445;52.600;13.328;2023-03-14T00:54:39;98516.44;;;11.91;100.00
2875;BME280;1445;52.600;13.328;2023-03-14T00:57:04;98519.59;;;11.93;100.00
2875;BME280;1445;52.600;13.328;2023-03-14T00:59:30;98494.22;;;11.84;100.00
2875;BME280;1445;52.600;13.328;2023-03-14T01:01:55;98497.28;;;11.82;100.00
2875;BME280;1445;52.600;13.328;2023-03-14T01:04:21;98505.56;;;11.82;100.00
2875;BME280;1445;52.600;13.328;2023-03-14T01:06:46;98492.88;;;11.78;100.00
2875;BME280;1445;52.600;13.328;2023-03-14T01:09:11;98494.13;;;11.80;100.00
2875;BME280;1445;52.600;13.328;2023-03-14T01:11:37;98482.94;;;11.73;100.00
2875;BME280;1445;52.600;13.328;2023-03-14T01:14:05;98493.53;;;11.71;100.00
2875;BME280;1445;52.600;13.328;2023-03-14T01:16:32;98509.66;;;11.69;100.00
2875;BME280;1445;52.600;13.328;2023-03-14T01:18:58;98513.50;;;11.64;100.00
2875;BME280;1445;52.600;13.328;2023-03-14T01:21:30;98518.94;;;11.61;100.00
2875;BME280;1445;52.600;13.328;2023-03-14T01:23:58;98538.72;;;11.63;100.00
2875;BME280;1445;52.600;13.328;2023-03-14T01:26:25;98563.88;;;11.61;100.00
2875;BME280;1445;52.600;13.328;2023-03-14T01:28:53;98570.97;;;11.59;100.00
2875;BME280;1445;52.600;13.328;2023-03-14T01:31:19;98573.25;;;11.57;100.00
2875;BME280;1445;52.600;13.328;2023-03-14T01:33:45;98580.03;;;11.59;100.00
2875;BME280;1445;52.600;13.328;2023-03-14T01:36:11;98569.72;;;11.56;100.00
2875;BME280;1445;52.600;13.328;2023-03-14T01:38:37;98584.59;;;11.52;100.00
2875;BME280;1445;52.600;13.328;2023-03-14T01:41:04;98596.84;;;11.54;100.00
2875;BME280;1445;52.600;13.328;2023-03-14T01:43:30;98583.59;;;11.60;100.00
2875;BME280;1445;52.600;13.328;2023-03-14T01:51:32;98587.66;;;11.66;100.00
2875;BME280;1445;52.600;13.328;2023-03-14T01:54:17;98592.31;;;11.62;100.00
2875;BME280;1445;52.600;13.328;2023-03-14T01:56:50;98587.66;;;11.66;100.00
2875;BME280;1445;52.600;13.328;2023-03-14T01:59:17;98567.09;;;11.63;100.00
2875;BME280;1445;52.600;13.328;2023-03-14T02:01:44;98567.47;;;11.62;100.00
2875;BME280;1445;52.600;13.328;2023-03-14T02:04:11;98556.00;;;11.60;100.00
2875;BME280;1445;52.600;13.328;2023-03-14T02:06:55;98555.91;;;11.56;100.00
2875;BME280;1445;52.600;13.328;2023-03-14T02:09:22;98547.97;;;11.55;100.00
2875;BME280;1445;52.600;13.328;2023-03-14T02:11:48;98570.34;;;11.50;100.00
2875;BME280;1445;52.600;13.328;2023-03-14T02:14:26;98553.34;;;11.47;100.00
2875;BME280;1445;52.600;13.328;2023-03-14T02:16:54;98544.00;;;11.52;100.00
2875;BME280;1445;52.600;13.328;2023-03-14T02:20:11;98556.94;;;11.48;100.00
2875;BME280;1445;52.600;13.328;2023-03-14T02:22:13;98553.34;;;11.47;100.00
2875;BME280;1445;52.600;13.328;2023-03-14T02:27:18;98540.72;;;11.46;100.00
2875;BME280;1445;52.600;13.328;2023-03-14T02:32:19;98526.22;;;11.50;100.00
2875;BME280;1445;52.600;13.328;2023-03-14T02:34:48;98537.69;;;11.52;100.00
2875;BME280;1445;52.600;13.328;2023-03-14T02:37:16;98527.53;;;11.56;100.00
2875;BME280;1445;52.600;13.328;2023-03-14T02:39:45;98522.88;;;11.60;100.00
2875;BME280;1445;52.600;13.328;2023-03-14T02:42:12;98516.91;;;11.58;100.00
2875;BME280;1445;52.600;13.328;2023-03-14T02:44:53;98520.56;;;11.62;100.00
2875;BME280;1445;52.600;13.328;2023-03-14T02:47:21;98514.22;;;11.61;100.00
2875;BME280;1445;52.600;13.328;2023-03-14T02:49:47;98503.13;;;11.58;100.00
2875;BME280;1445;52.600;13.328;2023-03-14T02:52:13;98499.63;;;11.61;100.00
2875;BME280;1445;52.600;13.328;2023-03-14T02:54:38;98514.00;;;11.51;100.00
2875;BME280;1445;52.600;13.328;2023-03-14T02:57:04;98485.34;;;11.55;100.00
2875;BME280;1445;52.600;13.328;2023-03-14T02:59:29;98472.19;;;11.49;100.00
2875;BME280;1445;52.600;13.328;2023-03-14T03:01:55;98475.22;;;11.43;100.00
2875;BME280;1445;52.600;13.328;2023-03-14T03:04:20;98467.34;;;11.42;100.00
2875;BME280;1445;52.600;13.328;2023-03-14T03:06:45;98471.13;;;11.34;100.00
2875;BME280;1445;52.600;13.328;2023-03-14T03:09:11;98454.50;;;11.30;100.00
2875;BME280;1445;52.600;13.328;2023-03-14T03:11:36;98451.75;;;11.30;100.00
2875;BME280;1445;52.600;13.328;2023-03-14T03:14:02;98462.25;;;11.25;100.00
2875;BME280;1445;52.600;13.328;2023-03-14T03:16:27;98447.28;;;11.26;100.00
2875;BME280;1445;52.600;13.328;2023-03-14T03:18:52;98447.16;;;11.18;100.00
2875;BME280;1445;52.600;13.328;2023-03-14T03:21:18;98455.50;;;11.22;100.00
2875;BME280;1445;52.600;13.328;2023-03-14T03:23:44;98446.78;;;11.20;100.00
2875;BME280;1445;52.600;13.328;2023-03-14T03:26:09;98436.19;;;11.22;100.00
2875;BME280;1445;52.600;13.328;2023-03-14T03:28:35;98447.84;;;11.15;100.00
2875;BME280;1445;52.600;13.328;2023-03-14T03:31:08;98454.00;;;11.09;100.00
2875;BME280;1445;52.600;13.328;2023-03-14T03:33:33;98467.81;;;11.09;100.00
2875;BME280;1445;52.600;13.328;2023-03-14T03:35:58;98472.81;;;11.03;100.00
2875;BME280;1445;52.600;13.328;2023-03-14T03:38:24;98464.97;;;11.05;100.00
2875;BME280;1445;52.600;13.328;2023-03-14T03:40:49;98458.75;;;11.08;100.00
2875;BME280;1445;52.600;13.328;2023-03-14T03:43:15;98468.69;;;11.13;100.00
2875;BME280;1445;52.600;13.328;2023-03-14T03:45:40;98466.28;;;11.11;100.00
2875;BME280;1445;52.600;13.328;2023-03-14T03:48:06;98462.03;;;11.14;100.00
2875;BME280;1445;52.600;13.328;2023-03-14T03:50:31;98460.13;;;11.18;100.00
2875;BME280;1445;52.600;13.328;2023-03-14T03:52:56;98445.63;;;11.21;100.00
2875;BME280;1445;52.600;13.328;2023-03-14T03:55:22;98444.84;;;11.20;100.00
2875;BME280;1445;52.600;13.328;2023-03-14T03:57:47;98445.97;;;11.19;100.00
2875;BME280;1445;52.600;13.328;2023-03-14T04:00:13;98445.63;;;11.21;100.00
2875;BME280;1445;52.600;13.328;2023-03-14T04:02:38;98442.50;;;11.22;100.00
2875;BME280;1445;52.600;13.328;2023-03-14T04:05:04;98427.13;;;11.21;100.00
2875;BME280;1445;52.600;13.328;2023-03-14T04:07:32;98439.38;;;11.24;100.00
2875;BME280;1445;52.600;13.328;2023-03-14T04:09:57;98458.88;;;11.15;100.00
2875;BME280;1445;52.600;13.328;2023-03-14T04:12:22;98431.63;;;11.10;100.00
2875;BME280;1445;52.600;13.328;2023-03-14T04:14:48;98435.53;;;11.09;100.00
2875;BME280;1445;52.600;13.328;2023-03-14T04:17:13;98451.34;;;11.12;100.00
2875;BME280;1445;52.600;13.328;2023-03-14T04:19:39;98442.06;;;11.20;100.00
2875;BME280;1445;52.600;13.328;2023-03-14T04:22:04;98430.53;;;11.15;100.00
2875;BME280;1445;52.600;13.328;2023-03-14T04:24:30;98427.41;;;11.16;100.00
2875;BME280;1445;52.600;13.328;2023-03-14T04:26:55;98437.47;;;11.09;100.00
2875;BME280;1445;52.600;13.328;2023-03-14T04:29:21;98430.03;;;11.09;100.00
2875;BME280;1445;52.600;13.328;2023-03-14T04:31:46;98426.25;;;11.17;100.00
2875;BME280;1445;52.600;13.328;2023-03-14T04:34:11;98402.22;;;11.18;100.00
2875;BME280;1445;52.600;13.328;2023-03-14T04:36:37;98412.81;;;11.16;100.00
2875;BME280;1445;52.600;13.328;2023-03-14T04:39:02;98401.78;;;11.16;100.00
2875;BME280;1445;52.600;13.328;2023-03-14T04:41:29;98393.50;;;11.16;100.00
2875;BME280;1445;52.600;13.328;2023-03-14T04:43:54;98396.25;;;11.16;100.00
2875;BME280;1445;52.600;13.328;2023-03-14T04:46:20;98382.34;;;11.09;100.00
2875;BME280;1445;52.600;13.328;2023-03-14T04:48:45;98387.13;;;11.12;100.00
2875;BME280;1445;52.600;13.328;2023-03-14T04:51:10;98365.72;;;11.05;100.00
2875;BME280;1445;52.600;13.328;2023-03-14T04:53:36;98361.81;;;11.06;100.00
2875;BME280;1445;52.600;13.328;2023-03-14T04:56:02;98365.78;;;11.09;100.00
2875;BME280;1445;52.600;13.328;2023-03-14T04:58:28;98357.19;;;11.10;100.00
2875;BME280;1445;52.600;13.328;2023-03-14T05:00:53;98372.47;;;11.08;100.00
2875;BME280;1445;52.600;13.328;2023-03-14T05:03:19;98374.81;;;11.06;100.00
2875;BME280;1445;52.600;13.328;2023-03-14T05:05:44;98373.72;;;11.10;100.00
2875;BME280;1445;52.600;13.328;2023-03-14T05:08:10;98379.97;;;11.07;100.00
2875;BME280;1445;52.600;13.328;2023-03-14T05:10:36;98382.00;;;11.10;100.00
2875;BME280;1445;52.600;13.328;2023-03-14T05:13:02;98370.09;;;11.06;100.00
2875;BME280;1445;52.600;13.328;2023-03-14T05:15:28;98366.19;;;11.07;100.00
2875;BME280;1445;52.600;13.328;2023-03-14T05:17:53;98357.66;;;11.16;100.00
2875;BME280;1445;52.600;13.328;2023-03-14T05:20:20;98355.66;;;11.13;100.00
2875;BME280;1445;52.600;13.328;2023-03-14T05:22:45;98350.50;;;11.11;100.00
2875;BME280;1445;52.600;13.328;2023-03-14T05:25:11;98348.53;;;11.12;100.00
2875;BME280;1445;52.600;13.328;2023-03-14T05:27:36;98343.75;;;11.09;100.00
2875;BME280;1445;52.600;13.328;2023-03-14T05:30:04;98365.06;;;11.12;100.00
2875;BME280;1445;52.600;13.328;2023-03-14T05:32:30;98346.16;;;11.10;100.00
2875;BME280;1445;52.600;13.328;2023-03-14T05:34:56;98355.22;;;11.11;100.00
2875;BME280;1445;52.600;13.328;2023-03-14T05:37:26;98344.63;;;11.13;100.00
2875;BME280;1445;52.600;13.328;2023-03-14T05:39:52;98349.25;;;11.09;100.00
2875;BME280;1445;52.600;13.328;2023-03-14T05:42:18;98348.25;;;11.17;100.00
2875;BME280;1445;52.600;13.328;2023-03-14T05:44:43;98341.13;;;11.16;100.00
2875;BME280;1445;52.600;13.328;2023-03-14T05:47:08;98343.16;;;11.19;100.00
2875;BME280;1445;52.600;13.328;2023-03-14T05:49:34;98335.53;;;11.12;100.00
2875;BME280;1445;52.600;13.328;2023-03-14T05:52:00;98339.53;;;11.15;100.00
2875;BME280;1445;52.600;13.328;2023-03-14T05:54:25;98340.34;;;11.15;100.00
2875;BME280;1445;52.600;13.328;2023-03-14T05:56:50;98344.25;;;11.14;100.00
2875;BME280;1445;52.600;13.328;2023-03-14T05:59:16;98343.09;;;11.15;100.00
2875;BME280;1445;52.600;13.328;2023-03-14T06:01:41;98334.88;;;11.19;100.00
2875;BME280;1445;52.600;13.328;2023-03-14T06:04:07;98344.78;;;11.20;100.00
2875;BME280;1445;52.600;13.328;2023-03-14T06:06:32;98348.81;;;11.26;100.00
2875;BME280;1445;52.600;13.328;2023-03-14T06:08:57;98340.13;;;11.24;100.00
2875;BME280;1445;52.600;13.328;2023-03-14T06:11:23;98336.06;;;11.18;100.00
2875;BME280;1445;52.600;13.328;2023-03-14T06:13:48;98329.09;;;11.24;100.00
2875;BME280;1445;52.600;13.328;2023-03-14T06:16:14;98321.59;;;11.25;100.00
2875;BME280;1445;52.600;13.328;2023-03-14T06:18:39;98330.00;;;11.32;100.00
2875;BME280;1445;52.600;13.328;2023-03-14T06:21:05;98325.28;;;11.32;100.00
2875;BME280;1445;52.600;13.328;2023-03-14T06:23:30;98316.22;;;11.32;100.00
2875;BME280;1445;52.600;13.328;2023-03-14T06:25:57;98334.34;;;11.33;100.00
2875;BME280;1445;52.600;13.328;2023-03-14T06:28:22;98333.69;;;11.39;100.00
2875;BME280;1445;52.600;13.328;2023-03-14T06:30:47;98334.13;;;11.41;100.00
2875;BME280;1445;52.600;13.328;2023-03-14T06:33:13;98343.28;;;11.45;100.00
2875;BME280;1445;52.600;13.328;2023-03-14T06:35:38;98325.50;;;11.43;100.00
2875;BME280;1445;52.600;13.328;2023-03-14T06:38:04;98319.75;;;11.52;100.00
2875;BME280;1445;52.600;13.328;2023-03-14T06:40:29;98322.50;;;11.52;100.00
2875;BME280;1445;52.600;13.328;2023-03-14T06:42:55;98340.72;;;11.56;100.00
2875;BME280;1445;52.600;13.328;2023-03-14T06:45:20;98347.47;;;11.59;100.00
2875;BME280;1445;52.600;13.328;2023-03-14T06:47:46;98350.34;;;11.66;100.00
2875;BME280;1445;52.600;13.328;2023-03-14T06:50:11;98328.22;;;11.62;100.00
2875;BME280;1445;52.600;13.328;2023-03-14T06:52:37;98376.09;;;11.74;100.00
2875;BME280;1445;52.600;13.328;2023-03-14T06:55:03;98353.34;;;11.80;100.00
2875;BME280;1445;52.600;13.328;2023-03-14T06:57:28;98354.94;;;11.81;100.00
2875;BME280;1445;52.600;13.328;2023-03-14T06:59:54;98362.03;;;11.82;100.00
2875;BME280;1445;52.600;13.328;2023-03-14T07:02:19;98357.97;;;11.96;100.00
2875;BME280;1445;52.600;13.328;2023-03-14T07:04:45;98350.47;;;11.96;100.00
2875;BME280;1445;52.600;13.328;2023-03-14T07:07:11;98354.03;;;11.97;100.00
2875;BME280;1445;52.600;13.328;2023-03-14T07:09:36;98362.63;;;11.91;100.00
2875;BME280;1445;52.600;13.328;2023-03-14T07:12:02;98368.59;;;11.93;100.00
2875;BME280;1445;52.600;13.328;2023-03-14T07:14:29;98356.31;;;11.91;100.00
2875;BME280;1445;52.600;13.328;2023-03-14T07:16:55;98364.59;;;11.91;100.00
2875;BME280;1445;52.600;13.328;2023-03-14T07:19:20;98381.47;;;11.86;100.00
2875;BME280;1445;52.600;13.328;2023-03-14T07:21:45;98364.91;;;11.86;100.00
2875;BME280;1445;52.600;13.328;2023-03-14T07:24:11;98370.72;;;11.81;100.00
2875;BME280;1445;52.600;13.328;2023-03-14T07:26:39;98372.38;;;11.85;100.00
2875;BME280;1445;52.600;13.328;2023-03-14T07:29:05;98380.56;;;11.82;100.00
2875;BME280;1445;52.600;13.328;2023-03-14T07:31:30;98380.66;;;11.85;100.00
2875;BME280;1445;52.600;13.328;2023-03-14T07:33:57;98379.63;;;11.93;100.00
2875;BME280;1445;52.600;13.328;2023-03-14T07:36:22;98393.38;;;11.90;100.00
2875;BME280;1445;52.600;13.328;2023-03-14T07:38:47;98383.53;;;11.92;100.00
2875;BME280;1445;52.600;13.328;2023-03-14T07:41:13;98389.50;;;11.94;100.00
2875;BME280;1445;52.600;13.328;2023-03-14T07:43:39;98382.53;;;12.01;100.00
2875;BME280;1445;52.600;13.328;2023-03-14T07:46:05;98399.25;;;12.11;100.00
2875;BME280;1445;52.600;13.328;2023-03-14T07:48:30;98380.72;;;12.12;100.00
2875;BME280;1445;52.600;13.328;2023-03-14T07:50:56;98389.06;;;12.15;100.00
2875;BME280;1445;52.600;13.328;2023-03-14T07:53:22;98399.31;;;12.15;100.00
2875;BME280;1445;52.600;13.328;2023-03-14T07:55:50;98418.28;;;12.16;100.00
2875;BME280;1445;52.600;13.328;2023-03-14T07:58:16;98384.56;;;12.30;100.00
2875;BME280;1445;52.600;13.328;2023-03-14T08:00:42;98393.88;;;12.45;100.00
2875;BME280;1445;52.600;13.328;2023-03-14T08:03:08;98395.09;;;12.48;100.00
2875;BME280;1445;52.600;13.328;2023-03-14T08:05:35;98380.31;;;12.63;100.00
2875;BME280;1445;52.600;13.328;2023-03-14T08:08:01;98363.91;;;12.77;100.00
2875;BME280;1445;52.600;13.328;2023-03-14T08:10:26;98371.16;;;12.85;100.00
2875;BME280;1445;52.600;13.328;2023-03-14T08:12:54;98370.25;;;12.78;100.00
2875;BME280;1445;52.600;13.328;2023-03-14T08:15:21;98365.28;;;12.90;100.00
2875;BME280;1445;52.600;13.328;2023-03-14T08:17:46;98364.53;;;12.94;100.00
2875;BME280;1445;52.600;13.328;2023-03-14T08:20:17;98365.03;;;12.73;100.00
2875;BME280;1445;52.600;13.328;2023-03-14T08:22:42;98358.63;;;12.65;100.00
2875;BME280;1445;52.600;13.328;2023-03-14T08:25:08;98363.41;;;12.68;100.00
2875;BME280;1445;52.600;13.328;2023-03-14T08:27:33;98361.66;;;12.56;100.00
2875;BME280;1445;52.600;13.328;2023-03-14T08:29:58;98376.59;;;12.52;100.00
2875;BME280;1445;52.600;13.328;2023-03-14T08:32:24;98367.63;;;12.58;100.00
2875;BME280;1445;52.600;13.328;2023-03-14T08:34:49;98353.59;;;12.44;100.00
2875;BME280;1445;52.600;13.328;2023-03-14T08:37:15;98375.69;;;12.44;100.00
2875;BME280;1445;52.600;13.328;2023-03-14T08:39:40;98378.47;;;12.44;100.00
2875;BME280;1445;52.600;13.328;2023-03-14T08:42:06;98385.91;;;12.40;100.00
2875;BME280;1445;52.600;13.328;2023-03-14T08:44:31;98389.25;;;12.26;100.00
2875;BME280;1445;52.600;13.328;2023-03-14T08:46:57;98397.28;;;12.12;100.00
2875;BME280;1445;52.600;13.328;2023-03-14T08:49:22;98399.63;;;12.10;100.00
2875;BME280;1445;52.600;13.328;2023-03-14T08:51:47;98397.81;;;12.21;100.00
2875;BME280;1445;52.600;13.328;2023-03-14T08:54:13;98400.41;;;12.33;100.00
2875;BME280;1445;52.600;13.328;2023-03-14T08:56:39;98398.44;;;12.60;100.00
2875;BME280;1445;52.600;13.328;2023-03-14T08:59:05;98392.94;;;12.60;100.00
2875;BME280;1445;52.600;13.328;2023-03-14T09:01:31;98398.66;;;12.75;100.00
2875;BME280;1445;52.600;13.328;2023-03-14T09:03:56;98400.25;;;12.76;100.00
2875;BME280;1445;52.600;13.328;2023-03-14T09:06:22;98400.72;;;12.81;100.00
2875;BME280;1445;52.600;13.328;2023-03-14T09:08:47;98394.91;;;12.90;100.00
2875;BME280;1445;52.600;13.328;2023-03-14T09:11:13;98382.34;;;12.96;100.00
2875;BME280;1445;52.600;13.328;2023-03-14T09:13:38;98402.81;;;12.92;100.00
2875;BME280;1445;52.600;13.328;2023-03-14T09:16:05;98393.63;;;12.84;100.00
2875;BME280;1445;52.600;13.328;2023-03-14T09:18:31;98378.16;;;12.79;100.00
2875;BME280;1445;52.600;13.328;2023-03-14T09:20:56;98360.22;;;12.96;100.00
2875;BME280;1445;52.600;13.328;2023-03-14T09:23:21;98357.44;;;13.26;100.00
2875;BME280;1445;52.600;13.328;2023-03-14T09:25:47;98357.25;;;13.42;100.00
2875;BME280;1445;52.600;13.328;2023-03-14T09:28:12;98367.56;;;13.45;100.00
2875;BME280;1445;52.600;13.328;2023-03-14T09:30:38;98350.84;;;13.75;100.00
2875;BME280;1445;52.600;13.328;2023-03-14T09:33:04;98360.38;;;13.81;100.00
2875;BME280;1445;52.600;13.328;2023-03-14T09:35:33;98336.34;;;13.93;100.00
2875;BME280;1445;52.600;13.328;2023-03-14T09:37:59;98342.25;;;13.88;100.00
2875;BME280;1445;52.600;13.328;2023-03-14T09:40:31;98330.75;;;13.85;100.00
2875;BME280;1445;52.600;13.328;2023-03-14T09:42:57;98325.25;;;13.89;100.00
2875;BME280;1445;52.600;13.328;2023-03-14T09:45:35;98361.22;;;13.85;100.00
2875;BME280;1445;52.600;13.328;2023-03-14T09:48:03;98330.97;;;13.63;100.00
2875;BME280;1445;52.600;13.328;2023-03-14T09:50:38;98334.88;;;13.61;100.00
2875;BME280;1445;52.600;13.328;2023-03-14T09:53:12;98348.94;;;13.42;100.00
2875;BME280;1445;52.600;13.328;2023-03-14T09:55:41;98361.47;;;13.32;100.00
2875;BME280;1445;52.600;13.328;2023-03-14T09:58:13;98343.38;;;13.39;100.00
2875;BME280;1445;52.600;13.328;2023-03-14T10:00:41;98341.00;;;13.41;100.00
2875;BME280;1445;52.600;13.328;2023-03-14T10:05:38;98350.16;;;13.45;100.00
2875;BME280;1445;52.600;13.328;2023-03-14T10:08:04;98354.13;;;13.47;100.00
2875;BME280;1445;52.600;13.328;2023-03-14T10:10:30;98347.81;;;13.50;100.00
2875;BME280;1445;52.600;13.328;2023-03-14T10:13:16;98340.41;;;13.61;100.00
2875;BME280;1445;52.600;13.328;2023-03-14T10:15:47;98358.53;;;13.52;100.00
2875;BME280;1445;52.600;13.328;2023-03-14T10:18:13;98352.97;;;13.48;100.00
2875;BME280;1445;52.600;13.328;2023-03-14T10:23:23;98358.34;;;13.34;100.00
2875;BME280;1445;52.600;13.328;2023-03-14T10:26:03;98361.84;;;13.31;100.00
2875;BME280;1445;52.600;13.328;2023-03-14T10:28:32;98361.91;;;13.34;100.00
2875;BME280;1445;52.600;13.328;2023-03-14T10:30:59;98361.09;;;13.34;100.00
2875;BME280;1445;52.600;13.328;2023-03-14T10:33:30;98377.34;;;13.39;100.00
2875;BME280;1445;52.600;13.328;2023-03-14T10:35:57;98353.63;;;13.38;100.00
2875;BME280;1445;52.600;13.328;2023-03-14T10:38:26;98359.63;;;13.44;100.00
2875;BME280;1445;52.600;13.328;2023-03-14T10:40:53;98348.13;;;13.42;100.00
2875;BME280;1445;52.600;13.328;2023-03-14T10:43:23;98352.81;;;13.34;100.00
2875;BME280;1445;52.600;13.328;2023-03-14T10:45:55;98363.06;;;13.33;100.00
2875;BME280;1445;52.600;13.328;2023-03-14T10:53:33;98367.00;;;13.32;100.00
2875;BME280;1445;52.600;13.328;2023-03-14T10:56:02;98357.53;;;13.33;100.00
2875;BME280;1445;52.600;13.328;2023-03-14T10:58:30;98360.75;;;13.39;100.00
2875;BME280;1445;52.600;13.328;2023-03-14T11:03:32;98355.19;;;13.35;100.00
2875;BME280;1445;52.600;13.328;2023-03-14T11:06:15;98368.94;;;13.28;100.00
2875;BME280;1445;52.600;13.328;2023-03-14T11:08:53;98351.44;;;13.21;100.00
2875;BME280;1445;52.600;13.328;2023-03-14T11:11:28;98355.50;;;13.27;100.00
2875;BME280;1445;52.600;13.328;2023-03-14T11:16:56;98374.78;;;13.23;100.00
2875;BME280;1445;52.600;13.328;2023-03-14T11:19:50;98405.09;;;13.16;100.00
2875;BME280;1445;52.600;13.328;2023-03-14T11:22:37;98346.69;;;13.21;100.00
2875;BME280;1445;52.600;13.328;2023-03-14T11:30:35;98346.84;;;13.32;100.00
2875;BME280;1445;52.600;13.328;2023-03-14T11:33:37;98354.34;;;13.31;100.00
2875;BME280;1445;52.600;13.328;2023-03-14T11:36:08;98333.06;;;13.35;100.00
2875;BME280;1445;52.600;13.328;2023-03-14T11:41:09;98350.47;;;13.40;100.00
2875;BME280;1445;52.600;13.328;2023-03-14T11:43:37;98339.81;;;13.38;100.00
2875;BME280;1445;52.600;13.328;2023-03-14T11:46:16;98337.06;;;13.42;100.00
2875;BME280;1445;52.600;13.328;2023-03-14T11:51:38;98358.03;;;13.12;100.00
2875;BME280;1445;52.600;13.328;2023-03-14T11:54:33;98345.63;;;12.96;100.00
2875;BME280;1445;52.600;13.328;2023-03-14T11:57:04;98351.34;;;13.13;100.00
2875;BME280;1445;52.600;13.328;2023-03-14T11:59:45;98341.91;;;13.18;100.00
2875;BME280;1445;52.600;13.328;2023-03-14T12:07:18;98400.13;;;12.95;100.00
2875;BME280;1445;52.600;13.328;2023-03-14T12:09:45;98374.25;;;12.27;100.00
2875;BME280;1445;52.600;13.328;2023-03-14T12:12:18;98386.31;;;11.92;100.00
2875;BME280;1445;52.600;13.328;2023-03-14T12:14:50;98389.13;;;11.96;100.00
2875;BME280;1445;52.600;13.328;2023-03-14T12:17:36;98363.31;;;12.08;100.00
2875;BME280;1445;52.600;13.328;2023-03-14T12:20:15;98366.28;;;12.22;100.00
2875;BME280;1445;52.600;13.328;2023-03-14T12:22:43;98374.16;;;12.47;100.00
2875;BME280;1445;52.600;13.328;2023-03-14T12:25:23;98381.78;;;12.83;100.00
2875;BME280;1445;52.600;13.328;2023-03-14T12:30:40;98338.81;;;13.57;100.00
2875;BME280;1445;52.600;13.328;2023-03-14T12:35:39;98336.66;;;13.80;100.00
2875;BME280;1445;52.600;13.328;2023-03-14T12:38:11;98320.41;;;14.30;100.00
2875;BME280;1445;52.600;13.328;2023-03-14T12:40:48;98321.84;;;14.10;100.00
2875;BME280;1445;52.600;13.328;2023-03-14T12:43:32;98316.94;;;13.89;100.00
2875;BME280;1445;52.600;13.328;2023-03-14T12:48:48;98321.75;;;13.51;100.00
2875;BME280;1445;52.600;13.328;2023-03-14T12:51:19;98332.84;;;13.51;100.00
2875;BME280;1445;52.600;13.328;2023-03-14T13:02:13;98341.06;;;12.80;100.00
2875;BME280;1445;52.600;13.328;2023-03-14T13:10:04;98364.69;;;12.21;100.00
2875;BME280;1445;52.600;13.328;2023-03-14T13:12:48;98365.22;;;12.30;100.00
2875;BME280;1445;52.600;13.328;2023-03-14T13:15:18;98371.88;;;12.52;100.00
2875;BME280;1445;52.600;13.328;2023-03-14T13:17:46;98349.03;;;13.19;100.00
2875;BME280;1445;52.600;13.328;2023-03-14T13:20:18;98344.59;;;13.85;100.00
2875;BME280;1445;52.600;13.328;2023-03-14T13:22:48;98314.28;;;14.59;100.00
2875;BME280;1445;52.600;13.328;2023-03-14T13:25:14;98294.31;;;15.15;100.00
2875;BME280;1445;52.600;13.328;2023-03-14T13:27:42;98286.06;;;15.62;100.00
2875;BME280;1445;52.600;13.328;2023-03-14T13:30:19;98273.31;;;16.50;100.00
2875;BME280;1445;52.600;13.328;2023-03-14T13:32:47;98279.31;;;15.41;100.00
2875;BME280;1445;52.600;13.328;2023-03-14T13:35:23;98266.56;;;16.44;100.00
2875;BME280;1445;52.600;13.328;2023-03-14T13:38:00;98269.81;;;15.92;100.00
2875;BME280;1445;52.600;13.328;2023-03-14T13:40:33;98277.38;;;15.88;100.00
2875;BME280;1445;52.600;13.328;2023-03-14T13:43:02;98274.59;;;16.03;100.00
2875;BME280;1445;52.600;13.328;2023-03-14T13:45:29;98279.69;;;15.47;100.00
2875;BME280;1445;52.600;13.328;2023-03-14T13:47:55;98275.34;;;15.57;100.00
2875;BME280;1445;52.600;13.328;2023-03-14T13:50:20;98266.22;;;15.35;100.00
2875;BME280;1445;52.600;13.328;2023-03-14T13:52:45;98267.81;;;15.61;100.00
2875;BME280;1445;52.600;13.328;2023-03-14T13:55:17;98274.16;;;15.50;100.00
2875;BME280;1445;52.600;13.328;2023-03-14T13:57:51;98265.03;;;15.39;100.00
2875;BME280;1445;52.600;13.328;2023-03-14T14:00:22;98257.13;;;15.95;100.00
2875;BME280;1445;52.600;13.328;2023-03-14T14:02:53;98249.94;;;15.51;100.00
2875;BME280;1445;52.600;13.328;2023-03-14T14:05:19;98249.09;;;16.43;100.00
2875;BME280;1445;52.600;13.328;2023-03-14T14:07:45;98243.50;;;16.58;100.00
2875;BME280;1445;52.600;13.328;2023-03-14T14:10:13;98260.28;;;16.11;100.00